| time (UTC) | temp F | wind direction | speed knots | gust knots | rain 1hr in | rain 24hr in | rain mn in | humidity % | barometer mb |
| 20260504175209 | 68 | 182 | 8.7 | 14.8 | 0.00 | 0.00 | 0.00 | 30 | 1011.4 |
| 20260504174709 | 68 | 159 | 5.2 | 14.8 | 0.00 | 0.00 | 0.00 | 30 | 1011.3 |
| 20260504174211 | 68 | 208 | 13.9 | 14.8 | 0.00 | 0.00 | 0.00 | 30 | 1011.4 |
| 20260504173211 | 67 | 200 | 7.8 | 12.2 | 0.00 | 0.00 | 0.00 | 31 | 1011.6 |
| 20260504172709 | 67 | 237 | 11.3 | 13.9 | 0.00 | 0.00 | 0.00 | 31 | 1011.5 |
| 20260504172209 | 67 | 188 | 8.7 | 16.5 | 0.00 | 0.00 | 0.00 | 31 | 1011.6 |
| 20260504171709 | 67 | 256 | 3.5 | 16.5 | 0.00 | 0.00 | 0.00 | 33 | 1011.6 |
| 20260504171209 | 66 | 234 | 8.7 | 13.0 | 0.00 | 0.00 | 0.00 | 31 | 1011.7 |
| 20260504170708 | 66 | 163 | 7.0 | 15.6 | 0.00 | 0.00 | 0.00 | 32 | 1011.7 |
| 20260504170211 | 67 | 202 | 8.7 | 15.6 | 0.00 | 0.00 | 0.00 | 31 | 1011.8 |
| 20260504160211 | 65 | 212 | 13.9 | 14.8 | 0.00 | 0.00 | 0.00 | 33 | 1012.4 |
| 20260504150709 | 63 | 224 | 12.2 | 13.0 | 0.00 | 0.00 | 0.00 | 36 | 1013.2 |
| 20260504150210 | 62 | 260 | 1.7 | 13.0 | 0.00 | 0.00 | 0.00 | 35 | 1013.3 |
| 20260504141208 | 59 | 246 | 6.1 | 13.0 | 0.00 | 0.00 | 0.00 | 41 | 1013.6 |
| 20260504140708 | 58 | 232 | 6.1 | 13.9 | 0.00 | 0.00 | 0.00 | 41 | 1013.5 |
| 20260504140208 | 58 | 223 | 4.3 | 13.9 | 0.00 | 0.00 | 0.00 | 41 | 1013.5 |
| 20260504130709 | 56 | 275 | 5.2 | 13.9 | 0.00 | 0.00 | 0.00 | 45 | 1014.2 |
| 20260504130210 | 56 | 228 | 4.3 | 18.2 | 0.00 | 0.00 | 0.00 | 45 | 1014.2 |
| 20260504110709 | 52 | 216 | 2.6 | 9.6 | 0.00 | 0.00 | 0.00 | 50 | 1014.3 |
| 20260504110210 | 51 | 254 | 3.5 | 13.0 | 0.00 | 0.00 | 0.00 | 49 | 1014.3 |
| 20260504100210 | 49 | 243 | 7.8 | 10.4 | 0.00 | 0.00 | 0.00 | 53 | 1013.8 |
| 20260504081708 | 49 | 246 | 2.6 | 7.8 | 0.00 | 0.00 | 0.00 | 46 | 1013.5 |
| 20260504081208 | 49 | 261 | 1.7 | 7.0 | 0.00 | 0.00 | 0.00 | 44 | 1013.4 |
| 20260504080708 | 49 | 226 | 2.6 | 9.6 | 0.00 | 0.00 | 0.00 | 44 | 1013.4 |
| 20260504080210 | 49 | 241 | 2.6 | 9.6 | 0.00 | 0.00 | 0.00 | 44 | 1013.4 |
| 20260504070214 | 45 | 265 | 5.2 | 8.7 | 0.00 | 0.00 | 0.00 | 51 | 1013.0 |
| 20260504060210 | 42 | 256 | 4.3 | 4.3 | 0.00 | 0.00 | 0.00 | 60 | 1013.1 |
| 20260504050708 | 43 | 265 | 0.9 | 5.2 | 0.00 | 0.00 | 0.00 | 57 | 1013.0 |
| 20260504050211 | 43 | 248 | 1.7 | 2.6 | 0.00 | 0.00 | 0.00 | 57 | 1012.9 |
| 20260504045710 | 44 | 203 | 2.6 | 2.6 | 0.00 | 0.00 | 0.00 | 56 | 1012.8 |
| 20260504045209 | 44 | 201 | 0.9 | 1.7 | 0.00 | 0.00 | 0.00 | 56 | 1012.9 |
| 20260504044711 | 44 | 201 | 0.9 | 2.6 | 0.00 | 0.00 | 0.00 | 56 | 1012.9 |
| 20260504044209 | 44 | 201 | 1.7 | 2.6 | 0.00 | 0.00 | 0.00 | 56 | 1013.0 |
| 20260504043710 | 44 | 201 | 0.9 | 2.6 | 0.00 | 0.00 | 0.00 | 56 | 1012.8 |
| 20260504043210 | 44 | 201 | 1.7 | 2.6 | 0.00 | 0.00 | 0.00 | 55 | 1012.9 |
| 20260504042710 | 45 | 200 | 0.0 | 2.6 | 0.00 | 0.00 | 0.00 | 55 | 1012.8 |
| 20260504042210 | 45 | 200 | 1.7 | 2.6 | 0.00 | 0.00 | 0.00 | 55 | 1012.8 |
| 20260504041711 | 45 | 200 | 0.0 | 2.6 | 0.00 | 0.00 | 0.00 | 54 | 1012.8 |
| 20260504041209 | 45 | 200 | 2.6 | 2.6 | 0.00 | 0.00 | 0.00 | 54 | 1012.7 |
| 20260504040709 | 45 | 190 | 0.9 | 1.7 | 0.00 | 0.00 | 0.00 | 54 | 1012.7 |
| 20260504040214 | 45 | 190 | 0.9 | 2.6 | 0.00 | 0.00 | 0.00 | 53 | 1012.7 |
| 20260504035710 | 45 | 190 | 1.7 | 3.5 | 0.00 | 0.00 | 0.00 | 53 | 1012.7 |
| 20260504035209 | 45 | 186 | 0.9 | 4.3 | 0.00 | 0.00 | 0.00 | 52 | 1012.6 |
| 20260504034711 | 45 | 185 | 1.7 | 4.3 | 0.00 | 0.00 | 0.00 | 51 | 1012.7 |
| 20260504033709 | 46 | 245 | 1.7 | 3.5 | 0.00 | 0.00 | 0.00 | 50 | 1012.6 |
| 20260504033210 | 46 | 243 | 1.7 | 3.5 | 0.00 | 0.00 | 0.00 | 50 | 1012.7 |
| 20260504032710 | 46 | 243 | 1.7 | 4.3 | 0.00 | 0.00 | 0.00 | 50 | 1012.6 |
| 20260504032209 | 47 | 242 | 1.7 | 6.1 | 0.00 | 0.00 | 0.00 | 50 | 1012.5 |
| 20260504031710 | 47 | 252 | 2.6 | 6.1 | 0.00 | 0.00 | 0.00 | 50 | 1012.6 |
| 20260504031210 | 47 | 261 | 2.6 | 5.2 | 0.00 | 0.00 | 0.00 | 50 | 1012.6 |
| 20260504030709 | 47 | 254 | 2.6 | 6.1 | 0.00 | 0.00 | 0.00 | 51 | 1012.6 |
| 20260504025709 | 47 | 259 | 2.6 | 5.2 | 0.00 | 0.00 | 0.00 | 51 | 1012.6 |
| 20260504025209 | 46 | 253 | 3.5 | 7.0 | 0.00 | 0.00 | 0.00 | 50 | 1012.7 |
| 20260504024709 | 46 | 240 | 7.0 | 7.0 | 0.00 | 0.00 | 0.00 | 47 | 1012.6 |
| 20260504024208 | 46 | 248 | 2.6 | 6.1 | 0.00 | 0.00 | 0.00 | 45 | 1012.7 |
| 20260504023709 | 47 | 278 | 1.7 | 3.5 | 0.00 | 0.00 | 0.00 | 44 | 1012.6 |
| 20260504023209 | 47 | 278 | 1.7 | 3.5 | 0.00 | 0.00 | 0.00 | 44 | 1012.7 |
| 20260504022708 | 47 | 279 | 1.7 | 3.5 | 0.00 | 0.00 | 0.00 | 44 | 1012.7 |
| 20260504022208 | 47 | 279 | 1.7 | 3.5 | 0.00 | 0.00 | 0.00 | 44 | 1012.6 |
| 20260504021709 | 47 | 279 | 1.7 | 2.6 | 0.00 | 0.00 | 0.00 | 44 | 1012.6 |
| 20260504021209 | 47 | 279 | 1.7 | 2.6 | 0.00 | 0.00 | 0.00 | 45 | 1012.6 |
| 20260504020709 | 47 | 279 | 0.9 | 2.6 | 0.00 | 0.00 | 0.00 | 45 | 1012.5 |
| 20260504020212 | 47 | 279 | 0.9 | 2.6 | 0.00 | 0.00 | 0.00 | 45 | 1012.6 |
| 20260504015710 | 47 | 279 | 0.9 | 2.6 | 0.00 | 0.00 | 0.00 | 45 | 1012.5 |
| 20260504015210 | 47 | 279 | 0.9 | 2.6 | 0.00 | 0.00 | 0.00 | 45 | 1012.5 |
| 20260504014709 | 47 | 279 | 0.9 | 1.7 | 0.00 | 0.00 | 0.00 | 44 | 1012.5 |
| 20260504014209 | 47 | 279 | 0.9 | 2.6 | 0.00 | 0.00 | 0.00 | 43 | 1012.5 |
| 20260504013709 | 48 | 279 | 1.7 | 2.6 | 0.00 | 0.00 | 0.00 | 43 | 1012.5 |
| 20260504013209 | 48 | 279 | 0.9 | 2.6 | 0.00 | 0.00 | 0.00 | 43 | 1012.3 |
| 20260504012709 | 48 | 279 | 0.0 | 0.0 | 0.00 | 0.00 | 0.00 | 42 | 1012.3 |
| 20260504011710 | 49 | 279 | 0.0 | 0.9 | 0.00 | 0.00 | 0.00 | 41 | 1012.3 |
| 20260504011210 | 49 | 279 | 0.0 | 3.5 | 0.00 | 0.00 | 0.00 | 41 | 1012.2 |
| 20260504010212 | 50 | 279 | 0.9 | 3.5 | 0.00 | 0.00 | 0.00 | 39 | 1012.1 |
| 20260504005210 | 50 | 280 | 0.9 | 2.6 | 0.00 | 0.00 | 0.00 | 38 | 1011.9 |
| 20260504004710 | 51 | 280 | 0.9 | 4.3 | 0.00 | 0.00 | 0.00 | 37 | 1011.9 |
| 20260504004210 | 51 | 280 | 1.7 | 5.2 | 0.00 | 0.00 | 0.00 | 36 | 1011.8 |
| 20260504003709 | 52 | 281 | 1.7 | 4.3 | 0.00 | 0.00 | 0.00 | 35 | 1011.8 |
| 20260504003209 | 52 | 281 | 1.7 | 4.3 | 0.00 | 0.00 | 0.00 | 33 | 1011.7 |
| 20260504002710 | 53 | 286 | 1.7 | 4.3 | 0.00 | 0.00 | 0.00 | 31 | 1011.6 |
| 20260504002210 | 54 | 286 | 1.7 | 4.3 | 0.00 | 0.00 | 0.00 | 29 | 1011.5 |
| 20260504001710 | 54 | 282 | 3.5 | 5.2 | 0.00 | 0.00 | 0.00 | 28 | 1011.5 |
| 20260504001210 | 55 | 264 | 2.6 | 6.1 | 0.00 | 0.00 | 0.00 | 26 | 1011.5 |
| 20260504000709 | 55 | 292 | 1.7 | 6.1 | 0.00 | 0.00 | 0.00 | 26 | 1011.3 |
| 20260504000211 | 55 | 299 | 1.7 | 6.1 | 0.00 | 0.00 | 0.00 | 25 | 1011.4 |
| 20260503235709 | 56 | 292 | 1.7 | 7.0 | 0.00 | 0.00 | 0.00 | 24 | 1011.3 |
| 20260503234709 | 56 | 271 | 5.2 | 8.7 | 0.00 | 0.00 | 0.00 | 23 | 1011.1 |
| 20260503234208 | 57 | 313 | 3.5 | 8.7 | 0.00 | 0.00 | 0.00 | 22 | 1011.0 |
| 20260503233209 | 57 | 280 | 2.6 | 10.4 | 0.00 | 0.00 | 0.00 | 21 | 1010.7 |
| 20260503232709 | 57 | 297 | 2.6 | 7.0 | 0.00 | 0.00 | 0.00 | 19 | 1010.7 |
| 20260503232209 | 58 | 308 | 1.7 | 7.8 | 0.00 | 0.00 | 0.00 | 20 | 1010.6 |
| 20260503231210 | 58 | 273 | 5.2 | 11.3 | 0.00 | 0.00 | 0.00 | 19 | 1010.5 |
| 20260503230714 | 58 | 296 | 7.8 | 11.3 | 0.00 | 0.00 | 0.00 | 19 | 1010.5 |
| 20260503230211 | 58 | 256 | 1.7 | 8.7 | 0.00 | 0.00 | 0.00 | 19 | 1010.4 |
| 20260503225710 | 58 | 341 | 1.7 | 8.7 | 0.00 | 0.00 | 0.00 | 18 | 1010.4 |
| 20260503225209 | 58 | 280 | 6.1 | 11.3 | 0.00 | 0.00 | 0.00 | 19 | 1010.4 |
| 20260503224710 | 58 | 278 | 2.6 | 11.3 | 0.00 | 0.00 | 0.00 | 18 | 1010.4 |
| 20260503224209 | 58 | 257 | 6.1 | 10.4 | 0.00 | 0.00 | 0.00 | 18 | 1010.4 |
| 20260503223709 | 58 | 290 | 4.3 | 14.8 | 0.00 | 0.00 | 0.00 | 17 | 1010.4 |
| 20260503223210 | 58 | 337 | 7.8 | 18.2 | 0.00 | 0.00 | 0.00 | 18 | 1010.3 |
| 20260503222710 | 59 | 313 | 5.2 | 18.2 | 0.00 | 0.00 | 0.00 | 16 | 1010.3 |
| 20260503222209 | 59 | 313 | 3.5 | 15.6 | 0.00 | 0.00 | 0.00 | 15 | 1010.3 |
| 20260503221711 | 59 | 312 | 9.6 | 15.6 | 0.00 | 0.00 | 0.00 | 17 | 1010.3 |
| 20260503221209 | 59 | 306 | 3.5 | 14.8 | 0.00 | 0.00 | 0.00 | 16 | 1010.3 |
| 20260503220709 | 59 | 297 | 8.7 | 14.8 | 0.00 | 0.00 | 0.00 | 16 | 1010.3 |
| 20260503215709 | 59 | 304 | 10.4 | 17.4 | 0.00 | 0.00 | 0.00 | 17 | 1010.4 |
| 20260503215209 | 59 | 292 | 9.6 | 18.2 | 0.00 | 0.00 | 0.00 | 16 | 1010.4 |
| 20260503214711 | 59 | 305 | 12.2 | 18.2 | 0.00 | 0.00 | 0.00 | 17 | 1010.3 |
| 20260503214210 | 59 | 270 | 6.1 | 15.6 | 0.00 | 0.00 | 0.00 | 18 | 1010.3 |
| 20260503213210 | 59 | 300 | 11.3 | 21.7 | 0.00 | 0.00 | 0.00 | 17 | 1010.2 |
| 20260503212709 | 59 | 21 | 2.6 | 18.2 | 0.00 | 0.00 | 0.00 | 19 | 1010.1 |
| 20260503212209 | 59 | 281 | 2.6 | 17.4 | 0.00 | 0.00 | 0.00 | 17 | 1010.2 |
| 20260503211710 | 59 | 318 | 3.5 | 17.4 | 0.00 | 0.00 | 0.00 | 19 | 1010.1 |
| 20260503210209 | 59 | 294 | 21.7 | 21.7 | 0.00 | 0.00 | 0.00 | 20 | 1010.1 |
| 20260503205708 | 60 | 304 | 13.9 | 22.6 | 0.00 | 0.00 | 0.00 | 19 | 1010.0 |
| 20260503205208 | 60 | 289 | 6.1 | 13.0 | 0.00 | 0.00 | 0.00 | 18 | 1010.1 |
| 20260503204709 | 59 | 313 | 5.2 | 15.6 | 0.00 | 0.00 | 0.00 | 21 | 1010.1 |
| 20260503203708 | 59 | 338 | 10.4 | 19.1 | 0.00 | 0.00 | 0.00 | 20 | 1010.2 |
| 20260503203209 | 58 | 259 | 14.8 | 21.7 | 0.00 | 0.00 | 0.00 | 20 | 1010.2 |
| 20260503202708 | 58 | 262 | 5.2 | 29.5 | 0.00 | 0.00 | 0.00 | 19 | 1010.1 |
| 20260503202209 | 59 | 281 | 7.8 | 29.5 | 0.00 | 0.00 | 0.00 | 19 | 1010.1 |
| 20260503201708 | 59 | 282 | 11.3 | 22.6 | 0.00 | 0.00 | 0.00 | 23 | 1010.2 |
| 20260503201208 | 58 | 292 | 6.1 | 22.6 | 0.00 | 0.00 | 0.00 | 21 | 1010.2 |
| 20260503200709 | 58 | 355 | 5.2 | 22.6 | 0.00 | 0.00 | 0.00 | 22 | 1010.2 |
| 20260503195708 | 58 | 254 | 7.8 | 20.9 | 0.00 | 0.00 | 0.00 | 22 | 1010.2 |
| 20260503195209 | 57 | 288 | 12.2 | 22.6 | 0.00 | 0.00 | 0.00 | 22 | 1010.3 |
| 20260503194708 | 57 | 294 | 13.9 | 23.5 | 0.00 | 0.00 | 0.00 | 24 | 1010.4 |
| 20260503193708 | 57 | 323 | 9.6 | 14.8 | 0.00 | 0.00 | 0.00 | 23 | 1010.4 |
| 20260503193208 | 57 | 282 | 5.2 | 15.6 | 0.00 | 0.00 | 0.00 | 22 | 1010.5 |
| 20260503192709 | 57 | 355 | 7.8 | 15.6 | 0.00 | 0.00 | 0.00 | 25 | 1010.6 |
| 20260503192209 | 57 | 336 | 10.4 | 14.8 | 0.00 | 0.00 | 0.00 | 23 | 1010.6 |
| 20260503191709 | 56 | 9 | 11.3 | 17.4 | 0.00 | 0.00 | 0.00 | 26 | 1010.6 |
| 20260503191208 | 56 | 331 | 9.6 | 17.4 | 0.00 | 0.00 | 0.00 | 25 | 1010.8 |
| 20260503190708 | 56 | 302 | 4.3 | 13.9 | 0.00 | 0.00 | 0.00 | 26 | 1010.8 |
| 20260503190208 | 56 | 336 | 1.7 | 14.8 | 0.00 | 0.00 | 0.00 | 25 | 1010.8 |
| 20260503185708 | 56 | 302 | 11.3 | 14.8 | 0.00 | 0.00 | 0.00 | 24 | 1010.8 |
| 20260503185208 | 56 | 270 | 2.6 | 14.8 | 0.00 | 0.00 | 0.00 | 25 | 1011.0 |
| 20260503184708 | 56 | 311 | 5.2 | 14.8 | 0.00 | 0.00 | 0.00 | 23 | 1010.9 |
| 20260503184208 | 55 | 338 | 1.7 | 15.6 | 0.00 | 0.00 | 0.00 | 28 | 1011.0 |
| 20260503183709 | 55 | 310 | 2.6 | 16.5 | 0.00 | 0.00 | 0.00 | 26 | 1011.1 |
| 20260503183209 | 55 | 306 | 8.7 | 16.5 | 0.00 | 0.00 | 0.00 | 25 | 1011.1 |
| 20260503182709 | 55 | 304 | 3.5 | 16.5 | 0.00 | 0.00 | 0.00 | 25 | 1011.0 |
| 20260503182209 | 54 | 350 | 7.0 | 16.5 | 0.00 | 0.00 | 0.00 | 27 | 1011.0 |
| 20260503181209 | 54 | 301 | 4.3 | 18.2 | 0.00 | 0.00 | 0.00 | 27 | 1011.0 |
| 20260503180708 | 55 | 332 | 17.4 | 18.2 | 0.00 | 0.00 | 0.00 | 25 | 1011.1 |
| 20260503180211 | 55 | 344 | 8.7 | 18.2 | 0.00 | 0.00 | 0.00 | 26 | 1010.9 |